sensor_id;sensor_type;location;lat;lon;timestamp;P1;durP1;ratioP1;P2;durP2;ratioP2
80179;SDS011;69505;52.134;5.438;2023-06-22T00:02:26;7.80;;;5.00;;
80179;SDS011;69505;52.134;5.438;2023-06-22T00:04:52;6.82;;;4.63;;
80179;SDS011;69505;52.134;5.438;2023-06-22T00:07:19;7.28;;;5.00;;
80179;SDS011;69505;52.134;5.438;2023-06-22T00:09:45;7.45;;;4.22;;
80179;SDS011;69505;52.134;5.438;2023-06-22T00:12:12;6.28;;;4.25;;
80179;SDS011;69505;52.134;5.438;2023-06-22T00:14:38;7.40;;;4.45;;
80179;SDS011;69505;52.134;5.438;2023-06-22T00:17:05;9.10;;;5.22;;
80179;SDS011;69505;52.134;5.438;2023-06-22T00:19:32;8.63;;;5.60;;
80179;SDS011;69505;52.134;5.438;2023-06-22T00:22:01;7.80;;;5.68;;
80179;SDS011;69505;52.134;5.438;2023-06-22T00:24:29;9.50;;;5.50;;
80179;SDS011;69505;52.134;5.438;2023-06-22T00:26:56;12.77;;;5.95;;
80179;SDS011;69505;52.134;5.438;2023-06-22T00:29:23;8.48;;;5.40;;
80179;SDS011;69505;52.134;5.438;2023-06-22T00:31:51;8.82;;;5.38;;
80179;SDS011;69505;52.134;5.438;2023-06-22T00:34:17;9.70;;;5.60;;
80179;SDS011;69505;52.134;5.438;2023-06-22T00:36:44;9.48;;;5.65;;
80179;SDS011;69505;52.134;5.438;2023-06-22T00:39:10;7.53;;;5.55;;
80179;SDS011;69505;52.134;5.438;2023-06-22T00:41:38;9.40;;;5.45;;
80179;SDS011;69505;52.134;5.438;2023-06-22T00:44:04;8.55;;;5.53;;
80179;SDS011;69505;52.134;5.438;2023-06-22T00:46:33;7.95;;;5.88;;
80179;SDS011;69505;52.134;5.438;2023-06-22T00:49:00;10.05;;;5.97;;
80179;SDS011;69505;52.134;5.438;2023-06-22T00:51:26;7.85;;;5.80;;
80179;SDS011;69505;52.134;5.438;2023-06-22T00:53:53;8.85;;;5.82;;
80179;SDS011;69505;52.134;5.438;2023-06-22T00:56:21;8.85;;;6.00;;
80179;SDS011;69505;52.134;5.438;2023-06-22T00:58:51;7.97;;;5.45;;
80179;SDS011;69505;52.134;5.438;2023-06-22T01:01:19;10.18;;;5.75;;
80179;SDS011;69505;52.134;5.438;2023-06-22T01:03:50;8.00;;;5.90;;
80179;SDS011;69505;52.134;5.438;2023-06-22T01:06:22;8.40;;;5.63;;
80179;SDS011;69505;52.134;5.438;2023-06-22T01:11:44;8.23;;;5.45;;
80179;SDS011;69505;52.134;5.438;2023-06-22T01:14:21;8.88;;;6.25;;
80179;SDS011;69505;52.134;5.438;2023-06-22T01:16:54;7.75;;;5.50;;
80179;SDS011;69505;52.134;5.438;2023-06-22T01:19:29;7.80;;;5.03;;
80179;SDS011;69505;52.134;5.438;2023-06-22T01:22:01;7.80;;;5.05;;
80179;SDS011;69505;52.134;5.438;2023-06-22T01:24:31;9.30;;;5.82;;
80179;SDS011;69505;52.134;5.438;2023-06-22T01:27:19;8.13;;;5.40;;
80179;SDS011;69505;52.134;5.438;2023-06-22T01:29:51;7.43;;;5.63;;
80179;SDS011;69505;52.134;5.438;2023-06-22T01:32:21;7.35;;;5.00;;
80179;SDS011;69505;52.134;5.438;2023-06-22T01:34:48;10.15;;;5.60;;
80179;SDS011;69505;52.134;5.438;2023-06-22T01:37:16;6.55;;;4.53;;
80179;SDS011;69505;52.134;5.438;2023-06-22T01:39:43;8.68;;;5.20;;
80179;SDS011;69505;52.134;5.438;2023-06-22T01:42:10;7.25;;;5.18;;
80179;SDS011;69505;52.134;5.438;2023-06-22T01:44:37;9.20;;;4.82;;
80179;SDS011;69505;52.134;5.438;2023-06-22T01:47:04;7.88;;;4.93;;
80179;SDS011;69505;52.134;5.438;2023-06-22T01:49:32;7.93;;;5.15;;
80179;SDS011;69505;52.134;5.438;2023-06-22T01:51:59;6.78;;;4.85;;
80179;SDS011;69505;52.134;5.438;2023-06-22T01:54:25;7.57;;;5.28;;
80179;SDS011;69505;52.134;5.438;2023-06-22T01:56:52;7.10;;;5.20;;
80179;SDS011;69505;52.134;5.438;2023-06-22T02:02:00;8.38;;;5.90;;
80179;SDS011;69505;52.134;5.438;2023-06-22T02:04:33;9.27;;;5.70;;
80179;SDS011;69505;52.134;5.438;2023-06-22T02:07:05;8.15;;;5.80;;
80179;SDS011;69505;52.134;5.438;2023-06-22T02:09:35;8.30;;;5.97;;
80179;SDS011;69505;52.134;5.438;2023-06-22T02:12:05;10.32;;;6.13;;
80179;SDS011;69505;52.134;5.438;2023-06-22T02:14:34;8.90;;;5.85;;
80179;SDS011;69505;52.134;5.438;2023-06-22T02:17:01;10.10;;;6.47;;
80179;SDS011;69505;52.134;5.438;2023-06-22T02:19:28;8.63;;;5.55;;
80179;SDS011;69505;52.134;5.438;2023-06-22T02:21:59;7.55;;;5.95;;
80179;SDS011;69505;52.134;5.438;2023-06-22T02:24:26;8.38;;;5.28;;
80179;SDS011;69505;52.134;5.438;2023-06-22T02:26:52;10.25;;;6.43;;
80179;SDS011;69505;52.134;5.438;2023-06-22T02:29:19;8.43;;;5.65;;
80179;SDS011;69505;52.134;5.438;2023-06-22T02:31:45;8.90;;;5.90;;
80179;SDS011;69505;52.134;5.438;2023-06-22T02:34:12;9.05;;;5.70;;
80179;SDS011;69505;52.134;5.438;2023-06-22T02:36:47;7.07;;;5.35;;
80179;SDS011;69505;52.134;5.438;2023-06-22T02:39:22;8.15;;;5.53;;
80179;SDS011;69505;52.134;5.438;2023-06-22T02:41:52;8.77;;;6.18;;
80179;SDS011;69505;52.134;5.438;2023-06-22T02:44:20;8.98;;;6.25;;
80179;SDS011;69505;52.134;5.438;2023-06-22T02:46:47;9.35;;;6.50;;
80179;SDS011;69505;52.134;5.438;2023-06-22T02:49:14;8.52;;;5.60;;
80179;SDS011;69505;52.134;5.438;2023-06-22T02:51:42;8.48;;;5.95;;
80179;SDS011;69505;52.134;5.438;2023-06-22T02:54:11;9.43;;;6.07;;
80179;SDS011;69505;52.134;5.438;2023-06-22T02:56:38;8.45;;;5.70;;
80179;SDS011;69505;52.134;5.438;2023-06-22T03:01:33;9.02;;;5.93;;
80179;SDS011;69505;52.134;5.438;2023-06-22T03:04:06;9.85;;;5.75;;
80179;SDS011;69505;52.134;5.438;2023-06-22T03:06:33;8.90;;;5.82;;
80179;SDS011;69505;52.134;5.438;2023-06-22T03:09:02;10.10;;;6.13;;
80179;SDS011;69505;52.134;5.438;2023-06-22T03:11:31;7.78;;;5.80;;
80179;SDS011;69505;52.134;5.438;2023-06-22T03:13:58;7.65;;;5.68;;
80179;SDS011;69505;52.134;5.438;2023-06-22T03:16:25;8.05;;;6.00;;
80179;SDS011;69505;52.134;5.438;2023-06-22T03:18:52;10.10;;;6.05;;
80179;SDS011;69505;52.134;5.438;2023-06-22T03:21:21;7.05;;;5.40;;
80179;SDS011;69505;52.134;5.438;2023-06-22T03:23:49;11.43;;;6.30;;
80179;SDS011;69505;52.134;5.438;2023-06-22T03:26:18;9.23;;;6.18;;
80179;SDS011;69505;52.134;5.438;2023-06-22T03:28:45;8.40;;;6.15;;
80179;SDS011;69505;52.134;5.438;2023-06-22T03:31:12;9.48;;;5.68;;
80179;SDS011;69505;52.134;5.438;2023-06-22T03:33:39;9.40;;;6.15;;
80179;SDS011;69505;52.134;5.438;2023-06-22T03:36:06;10.98;;;6.93;;
80179;SDS011;69505;52.134;5.438;2023-06-22T03:38:33;8.73;;;6.15;;
80179;SDS011;69505;52.134;5.438;2023-06-22T03:41:00;10.63;;;6.85;;
80179;SDS011;69505;52.134;5.438;2023-06-22T03:43:26;11.02;;;6.50;;
80179;SDS011;69505;52.134;5.438;2023-06-22T03:45:53;8.63;;;5.85;;
80179;SDS011;69505;52.134;5.438;2023-06-22T03:48:19;8.98;;;6.07;;
80179;SDS011;69505;52.134;5.438;2023-06-22T03:50:46;10.20;;;5.95;;
80179;SDS011;69505;52.134;5.438;2023-06-22T03:53:12;8.38;;;5.85;;
80179;SDS011;69505;52.134;5.438;2023-06-22T03:55:47;9.77;;;6.18;;
80179;SDS011;69505;52.134;5.438;2023-06-22T03:58:15;8.75;;;5.82;;
80179;SDS011;69505;52.134;5.438;2023-06-22T04:00:49;8.10;;;5.93;;
80179;SDS011;69505;52.134;5.438;2023-06-22T04:03:17;9.07;;;6.00;;
80179;SDS011;69505;52.134;5.438;2023-06-22T04:05:47;9.38;;;6.40;;
80179;SDS011;69505;52.134;5.438;2023-06-22T04:08:14;9.65;;;6.53;;
80179;SDS011;69505;52.134;5.438;2023-06-22T04:10:41;9.27;;;6.13;;
80179;SDS011;69505;52.134;5.438;2023-06-22T04:13:08;9.75;;;6.55;;
80179;SDS011;69505;52.134;5.438;2023-06-22T04:15:35;9.30;;;6.65;;
80179;SDS011;69505;52.134;5.438;2023-06-22T04:18:01;13.70;;;6.97;;
80179;SDS011;69505;52.134;5.438;2023-06-22T04:20:28;9.98;;;6.82;;
80179;SDS011;69505;52.134;5.438;2023-06-22T04:22:55;11.90;;;7.18;;
80179;SDS011;69505;52.134;5.438;2023-06-22T04:25:22;13.90;;;7.43;;
80179;SDS011;69505;52.134;5.438;2023-06-22T04:27:48;11.95;;;7.18;;
80179;SDS011;69505;52.134;5.438;2023-06-22T04:30:16;10.43;;;7.32;;
80179;SDS011;69505;52.134;5.438;2023-06-22T04:32:43;11.02;;;7.22;;
80179;SDS011;69505;52.134;5.438;2023-06-22T04:35:11;11.68;;;7.75;;
80179;SDS011;69505;52.134;5.438;2023-06-22T04:37:37;13.60;;;8.18;;
80179;SDS011;69505;52.134;5.438;2023-06-22T04:40:05;10.68;;;7.68;;
80179;SDS011;69505;52.134;5.438;2023-06-22T04:42:34;13.50;;;7.63;;
80179;SDS011;69505;52.134;5.438;2023-06-22T04:47:28;12.70;;;8.18;;
80179;SDS011;69505;52.134;5.438;2023-06-22T04:49:55;17.20;;;8.70;;
80179;SDS011;69505;52.134;5.438;2023-06-22T04:52:21;12.20;;;8.15;;
80179;SDS011;69505;52.134;5.438;2023-06-22T04:54:48;12.90;;;8.68;;
80179;SDS011;69505;52.134;5.438;2023-06-22T04:57:16;14.10;;;8.90;;
80179;SDS011;69505;52.134;5.438;2023-06-22T04:59:43;14.35;;;9.98;;
80179;SDS011;69505;52.134;5.438;2023-06-22T05:02:10;14.77;;;8.80;;
80179;SDS011;69505;52.134;5.438;2023-06-22T05:04:37;14.07;;;9.88;;
80179;SDS011;69505;52.134;5.438;2023-06-22T05:07:06;16.25;;;10.35;;
80179;SDS011;69505;52.134;5.438;2023-06-22T05:09:33;15.77;;;10.65;;
80179;SDS011;69505;52.134;5.438;2023-06-22T05:12:00;15.07;;;10.20;;
80179;SDS011;69505;52.134;5.438;2023-06-22T05:14:29;18.38;;;11.13;;
80179;SDS011;69505;52.134;5.438;2023-06-22T05:16:56;15.50;;;11.18;;
80179;SDS011;69505;52.134;5.438;2023-06-22T05:21:57;18.70;;;11.77;;
80179;SDS011;69505;52.134;5.438;2023-06-22T05:24:24;19.02;;;12.27;;
80179;SDS011;69505;52.134;5.438;2023-06-22T05:26:50;17.52;;;12.73;;
80179;SDS011;69505;52.134;5.438;2023-06-22T05:29:17;25.55;;;15.65;;
80179;SDS011;69505;52.134;5.438;2023-06-22T05:31:43;18.65;;;12.75;;
80179;SDS011;69505;52.134;5.438;2023-06-22T05:34:10;23.88;;;14.25;;
80179;SDS011;69505;52.134;5.438;2023-06-22T05:36:36;20.63;;;14.15;;
80179;SDS011;69505;52.134;5.438;2023-06-22T05:39:10;22.70;;;14.23;;
80179;SDS011;69505;52.134;5.438;2023-06-22T05:41:41;21.92;;;15.13;;
80179;SDS011;69505;52.134;5.438;2023-06-22T05:44:09;23.20;;;15.30;;
80179;SDS011;69505;52.134;5.438;2023-06-22T05:46:36;24.38;;;15.50;;
80179;SDS011;69505;52.134;5.438;2023-06-22T05:49:03;22.75;;;16.27;;
80179;SDS011;69505;52.134;5.438;2023-06-22T05:51:29;24.50;;;15.73;;
80179;SDS011;69505;52.134;5.438;2023-06-22T05:53:56;23.65;;;15.00;;
80179;SDS011;69505;52.134;5.438;2023-06-22T05:56:22;24.65;;;16.15;;
80179;SDS011;69505;52.134;5.438;2023-06-22T05:58:49;22.08;;;15.30;;
80179;SDS011;69505;52.134;5.438;2023-06-22T06:01:15;21.48;;;15.38;;
80179;SDS011;69505;52.134;5.438;2023-06-22T06:03:42;22.20;;;14.95;;
80179;SDS011;69505;52.134;5.438;2023-06-22T06:06:10;22.20;;;15.70;;
80179;SDS011;69505;52.134;5.438;2023-06-22T06:08:37;20.52;;;14.65;;
80179;SDS011;69505;52.134;5.438;2023-06-22T06:11:05;21.30;;;14.80;;
80179;SDS011;69505;52.134;5.438;2023-06-22T06:13:31;23.58;;;15.75;;
80179;SDS011;69505;52.134;5.438;2023-06-22T06:15:58;24.25;;;14.82;;
80179;SDS011;69505;52.134;5.438;2023-06-22T06:18:25;21.05;;;14.50;;
80179;SDS011;69505;52.134;5.438;2023-06-22T06:20:52;20.92;;;14.68;;
80179;SDS011;69505;52.134;5.438;2023-06-22T06:23:19;22.05;;;15.30;;
80179;SDS011;69505;52.134;5.438;2023-06-22T06:25:45;25.45;;;15.45;;
80179;SDS011;69505;52.134;5.438;2023-06-22T06:28:12;22.48;;;14.75;;
80179;SDS011;69505;52.134;5.438;2023-06-22T06:30:38;22.33;;;14.88;;
80179;SDS011;69505;52.134;5.438;2023-06-22T06:33:05;21.10;;;14.20;;
80179;SDS011;69505;52.134;5.438;2023-06-22T06:35:35;19.15;;;14.40;;
80179;SDS011;69505;52.134;5.438;2023-06-22T06:38:02;23.02;;;15.07;;
80179;SDS011;69505;52.134;5.438;2023-06-22T06:40:28;23.08;;;14.90;;
80179;SDS011;69505;52.134;5.438;2023-06-22T06:42:56;18.08;;;14.32;;
80179;SDS011;69505;52.134;5.438;2023-06-22T06:45:23;19.65;;;13.88;;
80179;SDS011;69505;52.134;5.438;2023-06-22T06:47:51;20.00;;;14.32;;
80179;SDS011;69505;52.134;5.438;2023-06-22T06:52:45;18.23;;;13.13;;
80179;SDS011;69505;52.134;5.438;2023-06-22T06:55:12;23.95;;;13.70;;
80179;SDS011;69505;52.134;5.438;2023-06-22T06:57:40;20.73;;;14.40;;
80179;SDS011;69505;52.134;5.438;2023-06-22T07:00:11;19.58;;;13.98;;
80179;SDS011;69505;52.134;5.438;2023-06-22T07:02:51;20.70;;;12.50;;
80179;SDS011;69505;52.134;5.438;2023-06-22T07:05:18;17.17;;;12.85;;
80179;SDS011;69505;52.134;5.438;2023-06-22T07:07:44;16.77;;;11.70;;
80179;SDS011;69505;52.134;5.438;2023-06-22T07:10:11;17.23;;;12.32;;
80179;SDS011;69505;52.134;5.438;2023-06-22T07:12:38;17.67;;;11.98;;
80179;SDS011;69505;52.134;5.438;2023-06-22T07:15:05;16.83;;;11.35;;
80179;SDS011;69505;52.134;5.438;2023-06-22T07:17:36;18.38;;;12.02;;
80179;SDS011;69505;52.134;5.438;2023-06-22T07:20:03;15.65;;;11.05;;
80179;SDS011;69505;52.134;5.438;2023-06-22T07:22:37;17.00;;;11.52;;
80179;SDS011;69505;52.134;5.438;2023-06-22T07:25:04;16.77;;;11.75;;
80179;SDS011;69505;52.134;5.438;2023-06-22T07:27:38;14.88;;;10.88;;
80179;SDS011;69505;52.134;5.438;2023-06-22T07:30:09;13.55;;;9.52;;
80179;SDS011;69505;52.134;5.438;2023-06-22T07:32:36;15.23;;;10.45;;
80179;SDS011;69505;52.134;5.438;2023-06-22T07:35:03;13.18;;;9.85;;
80179;SDS011;69505;52.134;5.438;2023-06-22T07:37:31;16.98;;;10.93;;
80179;SDS011;69505;52.134;5.438;2023-06-22T07:42:26;16.20;;;10.05;;
80179;SDS011;69505;52.134;5.438;2023-06-22T07:44:53;12.23;;;9.45;;
80179;SDS011;69505;52.134;5.438;2023-06-22T07:47:20;13.10;;;9.73;;
80179;SDS011;69505;52.134;5.438;2023-06-22T07:49:51;15.38;;;9.48;;
80179;SDS011;69505;52.134;5.438;2023-06-22T07:52:21;12.02;;;9.40;;
80179;SDS011;69505;52.134;5.438;2023-06-22T07:54:47;10.73;;;7.90;;
80179;SDS011;69505;52.134;5.438;2023-06-22T07:57:14;12.00;;;8.77;;
80179;SDS011;69505;52.134;5.438;2023-06-22T07:59:40;13.05;;;8.18;;
80179;SDS011;69505;52.134;5.438;2023-06-22T08:02:07;14.93;;;8.13;;
80179;SDS011;69505;52.134;5.438;2023-06-22T08:04:35;12.38;;;8.23;;
80179;SDS011;69505;52.134;5.438;2023-06-22T08:07:02;13.25;;;8.18;;
80179;SDS011;69505;52.134;5.438;2023-06-22T08:09:30;11.05;;;8.13;;
80179;SDS011;69505;52.134;5.438;2023-06-22T08:11:58;11.13;;;7.70;;
80179;SDS011;69505;52.134;5.438;2023-06-22T08:14:29;9.70;;;7.72;;
80179;SDS011;69505;52.134;5.438;2023-06-22T08:16:56;11.25;;;7.50;;
80179;SDS011;69505;52.134;5.438;2023-06-22T08:19:22;11.65;;;6.82;;
80179;SDS011;69505;52.134;5.438;2023-06-22T08:21:49;12.60;;;7.00;;
80179;SDS011;69505;52.134;5.438;2023-06-22T08:24:15;10.80;;;7.15;;
80179;SDS011;69505;52.134;5.438;2023-06-22T08:26:42;10.50;;;6.32;;
80179;SDS011;69505;52.134;5.438;2023-06-22T08:29:08;10.90;;;6.90;;
80179;SDS011;69505;52.134;5.438;2023-06-22T08:31:35;11.95;;;6.63;;
80179;SDS011;69505;52.134;5.438;2023-06-22T08:34:02;9.63;;;5.60;;
80179;SDS011;69505;52.134;5.438;2023-06-22T08:36:28;10.98;;;5.43;;
80179;SDS011;69505;52.134;5.438;2023-06-22T08:38:58;7.60;;;5.13;;
80179;SDS011;69505;52.134;5.438;2023-06-22T08:41:27;7.57;;;5.05;;
80179;SDS011;69505;52.134;5.438;2023-06-22T08:43:54;6.95;;;5.10;;
80179;SDS011;69505;52.134;5.438;2023-06-22T08:46:20;9.80;;;5.50;;
80179;SDS011;69505;52.134;5.438;2023-06-22T08:48:49;6.93;;;5.30;;
80179;SDS011;69505;52.134;5.438;2023-06-22T08:51:16;6.43;;;4.35;;
80179;SDS011;69505;52.134;5.438;2023-06-22T08:53:43;7.30;;;5.30;;
80179;SDS011;69505;52.134;5.438;2023-06-22T08:58:38;6.50;;;4.80;;
80179;SDS011;69505;52.134;5.438;2023-06-22T09:01:04;6.63;;;4.30;;
80179;SDS011;69505;52.134;5.438;2023-06-22T09:03:31;7.30;;;3.90;;
80179;SDS011;69505;52.134;5.438;2023-06-22T09:05:59;5.63;;;3.55;;
80179;SDS011;69505;52.134;5.438;2023-06-22T09:08:26;5.30;;;3.05;;
80179;SDS011;69505;52.134;5.438;2023-06-22T09:10:52;3.85;;;2.80;;
80179;SDS011;69505;52.134;5.438;2023-06-22T09:13:19;5.57;;;2.40;;
80179;SDS011;69505;52.134;5.438;2023-06-22T09:15:45;6.40;;;3.45;;
80179;SDS011;69505;52.134;5.438;2023-06-22T09:18:13;7.95;;;4.22;;
80179;SDS011;69505;52.134;5.438;2023-06-22T09:20:40;5.20;;;3.85;;
80179;SDS011;69505;52.134;5.438;2023-06-22T09:23:06;7.03;;;4.45;;
80179;SDS011;69505;52.134;5.438;2023-06-22T09:25:33;6.60;;;4.32;;
80179;SDS011;69505;52.134;5.438;2023-06-22T09:28:00;5.50;;;4.03;;
80179;SDS011;69505;52.134;5.438;2023-06-22T09:30:26;6.38;;;4.45;;
80179;SDS011;69505;52.134;5.438;2023-06-22T09:32:53;5.25;;;3.47;;
80179;SDS011;69505;52.134;5.438;2023-06-22T09:35:20;6.47;;;3.50;;
80179;SDS011;69505;52.134;5.438;2023-06-22T09:37:47;6.90;;;3.83;;
80179;SDS011;69505;52.134;5.438;2023-06-22T09:40:13;5.63;;;3.70;;
80179;SDS011;69505;52.134;5.438;2023-06-22T09:42:43;7.40;;;3.70;;
80179;SDS011;69505;52.134;5.438;2023-06-22T09:45:10;5.72;;;4.03;;
80179;SDS011;69505;52.134;5.438;2023-06-22T09:47:36;6.60;;;3.72;;
80179;SDS011;69505;52.134;5.438;2023-06-22T09:50:04;6.40;;;4.43;;
80179;SDS011;69505;52.134;5.438;2023-06-22T09:52:31;6.40;;;3.85;;
80179;SDS011;69505;52.134;5.438;2023-06-22T09:55:13;9.30;;;4.35;;
80179;SDS011;69505;52.134;5.438;2023-06-22T09:57:41;8.60;;;4.30;;
80179;SDS011;69505;52.134;5.438;2023-06-22T10:00:08;5.63;;;3.45;;
80179;SDS011;69505;52.134;5.438;2023-06-22T10:02:35;5.10;;;3.65;;
80179;SDS011;69505;52.134;5.438;2023-06-22T10:05:02;6.13;;;3.72;;
80179;SDS011;69505;52.134;5.438;2023-06-22T10:07:29;6.47;;;3.50;;
80179;SDS011;69505;52.134;5.438;2023-06-22T10:09:56;5.72;;;3.38;;
80179;SDS011;69505;52.134;5.438;2023-06-22T10:12:23;7.72;;;3.53;;
80179;SDS011;69505;52.134;5.438;2023-06-22T10:14:49;6.07;;;3.58;;
80179;SDS011;69505;52.134;5.438;2023-06-22T10:17:16;6.30;;;3.67;;
80179;SDS011;69505;52.134;5.438;2023-06-22T10:19:43;6.95;;;3.25;;
80179;SDS011;69505;52.134;5.438;2023-06-22T10:22:09;4.72;;;3.00;;
80179;SDS011;69505;52.134;5.438;2023-06-22T10:24:36;5.88;;;3.40;;
80179;SDS011;69505;52.134;5.438;2023-06-22T10:27:04;4.57;;;3.00;;
80179;SDS011;69505;52.134;5.438;2023-06-22T10:29:31;7.03;;;3.47;;
80179;SDS011;69505;52.134;5.438;2023-06-22T10:31:58;5.00;;;3.25;;
80179;SDS011;69505;52.134;5.438;2023-06-22T10:34:24;5.88;;;3.20;;
80179;SDS011;69505;52.134;5.438;2023-06-22T10:36:51;4.90;;;3.22;;
80179;SDS011;69505;52.134;5.438;2023-06-22T10:39:17;7.10;;;3.22;;
80179;SDS011;69505;52.134;5.438;2023-06-22T10:41:44;5.35;;;3.58;;
80179;SDS011;69505;52.134;5.438;2023-06-22T10:44:11;4.70;;;2.90;;
80179;SDS011;69505;52.134;5.438;2023-06-22T10:46:38;5.32;;;2.95;;
80179;SDS011;69505;52.134;5.438;2023-06-22T10:49:05;7.03;;;3.72;;
80179;SDS011;69505;52.134;5.438;2023-06-22T10:51:31;5.70;;;3.60;;
80179;SDS011;69505;52.134;5.438;2023-06-22T10:53:58;5.07;;;3.35;;
80179;SDS011;69505;52.134;5.438;2023-06-22T10:56:25;5.43;;;3.72;;
80179;SDS011;69505;52.134;5.438;2023-06-22T10:58:52;6.30;;;3.80;;
80179;SDS011;69505;52.134;5.438;2023-06-22T11:01:18;6.40;;;4.28;;
80179;SDS011;69505;52.134;5.438;2023-06-22T11:04:02;9.43;;;4.20;;
80179;SDS011;69505;52.134;5.438;2023-06-22T11:06:29;7.47;;;4.32;;
80179;SDS011;69505;52.134;5.438;2023-06-22T11:08:56;5.97;;;4.10;;
80179;SDS011;69505;52.134;5.438;2023-06-22T11:11:37;7.30;;;4.18;;
80179;SDS011;69505;52.134;5.438;2023-06-22T11:14:03;6.65;;;3.65;;
80179;SDS011;69505;52.134;5.438;2023-06-22T11:16:30;9.85;;;3.88;;
80179;SDS011;69505;52.134;5.438;2023-06-22T11:18:56;5.95;;;3.42;;
80179;SDS011;69505;52.134;5.438;2023-06-22T11:21:23;6.32;;;3.67;;
80179;SDS011;69505;52.134;5.438;2023-06-22T11:23:50;5.50;;;3.50;;
80179;SDS011;69505;52.134;5.438;2023-06-22T11:26:16;6.18;;;3.78;;
80179;SDS011;69505;52.134;5.438;2023-06-22T11:28:43;7.68;;;4.03;;
80179;SDS011;69505;52.134;5.438;2023-06-22T11:31:10;7.15;;;3.95;;
80179;SDS011;69505;52.134;5.438;2023-06-22T11:33:51;6.45;;;3.72;;
80179;SDS011;69505;52.134;5.438;2023-06-22T11:36:18;8.52;;;3.92;;
80179;SDS011;69505;52.134;5.438;2023-06-22T11:38:45;4.90;;;3.50;;
80179;SDS011;69505;52.134;5.438;2023-06-22T11:41:11;5.38;;;3.75;;
80179;SDS011;69505;52.134;5.438;2023-06-22T11:43:38;7.15;;;3.45;;
80179;SDS011;69505;52.134;5.438;2023-06-22T11:46:04;6.55;;;4.13;;
80179;SDS011;69505;52.134;5.438;2023-06-22T11:48:31;5.53;;;3.97;;
80179;SDS011;69505;52.134;5.438;2023-06-22T11:50:58;6.28;;;4.22;;
80179;SDS011;69505;52.134;5.438;2023-06-22T11:53:26;6.40;;;3.92;;
80179;SDS011;69505;52.134;5.438;2023-06-22T11:55:53;5.93;;;3.97;;
80179;SDS011;69505;52.134;5.438;2023-06-22T11:58:20;8.13;;;4.78;;
80179;SDS011;69505;52.134;5.438;2023-06-22T12:00:48;10.15;;;5.53;;
80179;SDS011;69505;52.134;5.438;2023-06-22T12:03:18;9.18;;;5.97;;
80179;SDS011;69505;52.134;5.438;2023-06-22T12:05:45;12.40;;;5.53;;
80179;SDS011;69505;52.134;5.438;2023-06-22T12:08:12;8.43;;;5.03;;
80179;SDS011;69505;52.134;5.438;2023-06-22T12:10:40;10.05;;;5.85;;
80179;SDS011;69505;52.134;5.438;2023-06-22T12:13:06;8.82;;;5.85;;
80179;SDS011;69505;52.134;5.438;2023-06-22T12:15:33;10.13;;;6.32;;
80179;SDS011;69505;52.134;5.438;2023-06-22T12:17:59;9.65;;;5.55;;
80179;SDS011;69505;52.134;5.438;2023-06-22T12:20:27;10.88;;;6.50;;
80179;SDS011;69505;52.134;5.438;2023-06-22T12:22:55;10.82;;;7.18;;
80179;SDS011;69505;52.134;5.438;2023-06-22T12:25:24;8.75;;;6.75;;
80179;SDS011;69505;52.134;5.438;2023-06-22T12:27:51;10.00;;;6.43;;
80179;SDS011;69505;52.134;5.438;2023-06-22T12:30:17;13.68;;;7.43;;
80179;SDS011;69505;52.134;5.438;2023-06-22T12:32:44;11.68;;;6.72;;
80179;SDS011;69505;52.134;5.438;2023-06-22T12:35:10;13.02;;;7.15;;
80179;SDS011;69505;52.134;5.438;2023-06-22T12:37:41;9.38;;;6.90;;
80179;SDS011;69505;52.134;5.438;2023-06-22T12:40:08;8.73;;;6.32;;
80179;SDS011;69505;52.134;5.438;2023-06-22T12:42:36;8.35;;;6.00;;
80179;SDS011;69505;52.134;5.438;2023-06-22T12:45:03;9.43;;;5.60;;
80179;SDS011;69505;52.134;5.438;2023-06-22T12:47:30;8.80;;;5.30;;
80179;SDS011;69505;52.134;5.438;2023-06-22T12:49:57;9.00;;;5.90;;
80179;SDS011;69505;52.134;5.438;2023-06-22T12:52:23;9.52;;;5.28;;
80179;SDS011;69505;52.134;5.438;2023-06-22T12:54:50;8.40;;;5.15;;
80179;SDS011;69505;52.134;5.438;2023-06-22T12:57:21;8.65;;;5.35;;
80179;SDS011;69505;52.134;5.438;2023-06-22T12:59:48;7.78;;;4.80;;
80179;SDS011;69505;52.134;5.438;2023-06-22T13:02:14;9.40;;;5.07;;
80179;SDS011;69505;52.134;5.438;2023-06-22T13:04:41;8.18;;;4.88;;
80179;SDS011;69505;52.134;5.438;2023-06-22T13:07:09;8.45;;;5.22;;
80179;SDS011;69505;52.134;5.438;2023-06-22T13:09:39;9.43;;;5.78;;
80179;SDS011;69505;52.134;5.438;2023-06-22T13:12:05;7.50;;;5.43;;
80179;SDS011;69505;52.134;5.438;2023-06-22T13:14:33;9.20;;;5.60;;
80179;SDS011;69505;52.134;5.438;2023-06-22T13:16:59;8.80;;;5.68;;
80179;SDS011;69505;52.134;5.438;2023-06-22T13:19:26;8.48;;;6.25;;
80179;SDS011;69505;52.134;5.438;2023-06-22T13:21:55;10.40;;;5.55;;
80179;SDS011;69505;52.134;5.438;2023-06-22T13:24:21;7.82;;;5.75;;
80179;SDS011;69505;52.134;5.438;2023-06-22T13:26:48;9.07;;;5.53;;
80179;SDS011;69505;52.134;5.438;2023-06-22T13:29:14;10.75;;;6.18;;
80179;SDS011;69505;52.134;5.438;2023-06-22T13:31:41;10.15;;;6.00;;
80179;SDS011;69505;52.134;5.438;2023-06-22T13:34:08;11.30;;;6.35;;
80179;SDS011;69505;52.134;5.438;2023-06-22T13:36:34;10.70;;;7.30;;
80179;SDS011;69505;52.134;5.438;2023-06-22T13:39:01;13.52;;;7.00;;
80179;SDS011;69505;52.134;5.438;2023-06-22T13:41:27;8.77;;;7.05;;
80179;SDS011;69505;52.134;5.438;2023-06-22T13:43:54;10.20;;;7.53;;
80179;SDS011;69505;52.134;5.438;2023-06-22T13:46:21;9.63;;;7.05;;
80179;SDS011;69505;52.134;5.438;2023-06-22T13:48:47;12.05;;;7.30;;
80179;SDS011;69505;52.134;5.438;2023-06-22T13:51:14;11.43;;;6.95;;
80179;SDS011;69505;52.134;5.438;2023-06-22T13:53:40;11.07;;;7.38;;
80179;SDS011;69505;52.134;5.438;2023-06-22T13:56:07;11.52;;;7.18;;
80179;SDS011;69505;52.134;5.438;2023-06-22T13:58:34;10.40;;;7.50;;
80179;SDS011;69505;52.134;5.438;2023-06-22T14:01:00;9.90;;;7.57;;
80179;SDS011;69505;52.134;5.438;2023-06-22T14:03:27;11.10;;;7.65;;
80179;SDS011;69505;52.134;5.438;2023-06-22T14:05:53;11.10;;;7.78;;
80179;SDS011;69505;52.134;5.438;2023-06-22T14:08:21;10.82;;;7.45;;
80179;SDS011;69505;52.134;5.438;2023-06-22T14:10:52;10.23;;;7.85;;
80179;SDS011;69505;52.134;5.438;2023-06-22T14:13:19;10.23;;;7.95;;
80179;SDS011;69505;52.134;5.438;2023-06-22T14:15:46;9.50;;;7.53;;
80179;SDS011;69505;52.134;5.438;2023-06-22T14:18:14;11.25;;;7.75;;
80179;SDS011;69505;52.134;5.438;2023-06-22T14:20:41;14.63;;;8.13;;
80179;SDS011;69505;52.134;5.438;2023-06-22T14:23:08;14.18;;;8.15;;
80179;SDS011;69505;52.134;5.438;2023-06-22T14:25:34;10.48;;;7.47;;
80179;SDS011;69505;52.134;5.438;2023-06-22T14:28:01;10.68;;;8.18;;
80179;SDS011;69505;52.134;5.438;2023-06-22T14:30:27;10.73;;;7.88;;
80179;SDS011;69505;52.134;5.438;2023-06-22T14:32:54;12.45;;;8.30;;
80179;SDS011;69505;52.134;5.438;2023-06-22T14:35:21;11.93;;;8.02;;
80179;SDS011;69505;52.134;5.438;2023-06-22T14:37:47;11.63;;;8.07;;
80179;SDS011;69505;52.134;5.438;2023-06-22T14:40:15;12.05;;;9.07;;
80179;SDS011;69505;52.134;5.438;2023-06-22T14:42:42;14.23;;;8.52;;
80179;SDS011;69505;52.134;5.438;2023-06-22T14:45:09;12.55;;;8.45;;
80179;SDS011;69505;52.134;5.438;2023-06-22T14:47:36;11.57;;;8.73;;
80179;SDS011;69505;52.134;5.438;2023-06-22T14:50:02;11.75;;;8.38;;
80179;SDS011;69505;52.134;5.438;2023-06-22T14:52:29;11.07;;;7.97;;
80179;SDS011;69505;52.134;5.438;2023-06-22T14:54:56;12.38;;;8.23;;
80179;SDS011;69505;52.134;5.438;2023-06-22T14:57:22;10.43;;;8.07;;
80179;SDS011;69505;52.134;5.438;2023-06-22T14:59:49;10.35;;;8.10;;
80179;SDS011;69505;52.134;5.438;2023-06-22T15:02:16;11.05;;;8.25;;
80179;SDS011;69505;52.134;5.438;2023-06-22T15:04:43;11.25;;;8.07;;